Time;durP1;ratioP1;P1;durP2;ratioP2;P2;SDS_P1;SDS_P2;PMS_P1;PMS_P2;Temp;Humidity;BMP_temperature;BMP_pressure;BME280_temperature;BME280_humidity;BME280_pressure;Samples;Min_cycle;Max_cycle;Signal;HPM_P1;HPM_P2
2021/07/30 00:02:02;;;;;;;12.20;8.90;;;;;;;25.42;100.00;100832.66;5010510;28;20181;-73
2021/07/30 00:04:28;;;;;;;16.00;9.23;;;;;;;25.43;100.00;100824.38;5009663;28;20177;-73
2021/07/30 00:06:53;;;;;;;12.90;7.20;;;;;;;25.42;100.00;100811.13;5010872;28;20196;-73
2021/07/30 00:09:19;;;;;;;10.60;7.80;;;;;;;25.48;100.00;100818.41;5014761;28;20170;-73
2021/07/30 00:11:44;;;;;;;13.03;6.13;;;;;;;25.55;100.00;100813.06;5026583;28;20177;-73
2021/07/30 00:14:10;;;;;;;12.70;8.37;;;;;;;25.56;100.00;100810.19;5007318;28;20246;-72
2021/07/30 00:16:37;;;;;;;12.27;8.90;;;;;;;25.54;100.00;100809.53;5023408;28;20176;-70
2021/07/30 00:19:02;;;;;;;10.70;7.37;;;;;;;25.48;100.00;100807.66;5029518;28;20409;-71
2021/07/30 00:21:28;;;;;;;10.67;6.63;;;;;;;25.43;100.00;100808.22;4996977;28;20410;-72
2021/07/30 00:23:54;;;;;;;8.83;6.27;;;;;;;25.38;100.00;100813.38;5006794;28;20197;-71
2021/07/30 00:26:19;;;;;;;9.23;6.80;;;;;;;25.36;100.00;100811.91;5027597;28;20174;-72
2021/07/30 00:28:45;;;;;;;19.50;8.27;;;;;;;25.31;100.00;100801.72;5024138;28;20190;-70
2021/07/30 00:31:11;;;;;;;15.90;7.33;;;;;;;25.28;100.00;100802.13;5011996;28;20607;-71
2021/07/30 00:33:36;;;;;;;12.87;6.47;;;;;;;25.29;100.00;100801.09;5017693;28;20178;-71
2021/07/30 00:36:02;;;;;;;11.23;7.83;;;;;;;25.35;100.00;100799.50;5015967;28;20174;-72
2021/07/30 00:38:27;;;;;;;11.90;7.80;;;;;;;25.33;100.00;100799.69;5019252;28;20231;-73
2021/07/30 00:40:53;;;;;;;12.23;6.53;;;;;;;25.32;100.00;100799.91;5014890;28;20185;-74
2021/07/30 00:43:18;;;;;;;11.60;6.60;;;;;;;25.32;100.00;100789.97;5016434;28;20193;-74
2021/07/30 00:45:45;;;;;;;9.20;6.80;;;;;;;25.29;100.00;100787.66;5014139;28;20255;-84
2021/07/30 00:48:11;;;;;;;8.93;6.70;;;;;;;25.28;100.00;100783.31;5008786;28;20266;-72
2021/07/30 00:50:38;;;;;;;9.47;7.00;;;;;;;25.26;100.00;100780.00;5015197;28;20440;-73
2021/07/30 00:53:03;;;;;;;11.87;7.17;;;;;;;25.31;100.00;100785.59;5014742;28;20847;-75
2021/07/30 00:55:29;;;;;;;11.47;6.33;;;;;;;25.33;100.00;100775.47;5019324;28;20424;-71
2021/07/30 00:57:54;;;;;;;9.07;6.30;;;;;;;25.26;100.00;100771.09;5008335;28;20187;-74
2021/07/30 01:00:21;;;;;;;9.50;7.10;;;;;;;25.22;100.00;100770.63;5014761;28;20162;-72
2021/07/30 01:02:46;;;;;;;9.57;7.00;;;;;;;25.21;100.00;100771.66;5013823;28;20170;-71
2021/07/30 01:05:12;;;;;;;14.03;7.40;;;;;;;25.23;100.00;100776.84;5013609;28;20416;-73
2021/07/30 01:07:39;;;;;;;13.53;6.37;;;;;;;25.22;100.00;100776.03;5013003;28;20190;-72
2021/07/30 01:10:05;;;;;;;9.70;6.63;;;;;;;25.23;100.00;100774.16;5014187;28;20591;-72
2021/07/30 01:12:32;;;;;;;11.67;6.87;;;;;;;25.28;100.00;100780.63;5013796;28;20406;-71
2021/07/30 01:14:57;;;;;;;11.63;6.80;;;;;;;25.31;100.00;100776.69;5005247;28;20974;-73
2021/07/30 01:17:25;;;;;;;11.90;6.37;;;;;;;25.30;100.00;100772.34;5014117;28;20409;-72
2021/07/30 01:19:52;;;;;;;14.60;6.00;;;;;;;25.25;100.00;100772.94;5015934;28;20624;-72
2021/07/30 01:22:34;;;;;;;11.53;6.30;;;;;;;25.23;100.00;100777.69;5012444;28;20453;-72
2021/07/30 01:25:00;;;;;;;11.30;7.10;;;;;;;25.20;100.00;100775.41;5015924;28;20421;-75
2021/07/30 01:27:25;;;;;;;9.50;5.83;;;;;;;25.26;100.00;100784.53;5003811;28;20453;-71
2021/07/30 01:29:51;;;;;;;11.77;6.77;;;;;;;25.17;100.00;100782.00;5004743;28;20175;-71
2021/07/30 01:32:17;;;;;;;8.70;5.80;;;;;;;25.10;100.00;100789.19;5014153;28;20619;-74
2021/07/30 01:34:43;;;;;;;10.20;5.83;;;;;;;25.13;100.00;100779.91;5010812;28;20225;-71
2021/07/30 01:37:12;;;;;;;12.20;6.00;;;;;;;25.17;100.00;100773.09;5014480;28;20556;-71
2021/07/30 01:39:38;;;;;;;11.23;6.73;;;;;;;25.14;100.00;100773.47;5011273;28;20524;-74
2021/07/30 01:42:05;;;;;;;9.60;6.80;;;;;;;25.12;100.00;100771.00;5012801;28;20417;-73
2021/07/30 01:44:30;;;;;;;8.93;5.80;;;;;;;25.12;100.00;100770.16;5011947;28;20424;-72
2021/07/30 01:46:56;;;;;;;8.60;6.97;;;;;;;25.12;100.00;100773.69;5013011;28;20535;-71
2021/07/30 01:49:22;;;;;;;9.97;7.80;;;;;;;25.09;100.00;100787.53;5002577;28;20232;-71
2021/07/30 01:51:47;;;;;;;13.23;9.10;;;;;;;25.08;100.00;100787.72;5011780;28;20190;-73
2021/07/30 01:54:16;;;;;;;12.23;9.13;;;;;;;25.05;100.00;100788.94;5013056;28;20193;-72
2021/07/30 01:56:42;;;;;;;11.20;8.80;;;;;;;25.10;100.00;100781.13;5017047;28;20267;-72
2021/07/30 01:59:09;;;;;;;12.40;9.07;;;;;;;25.14;100.00;100774.31;5013972;28;20443;-71
2021/07/30 02:01:34;;;;;;;15.33;9.27;;;;;;;25.02;100.00;100777.72;5011811;28;20938;-72
2021/07/30 02:04:00;;;;;;;9.37;8.17;;;;;;;24.87;100.00;100784.03;5012607;28;20409;-73
2021/07/30 02:06:25;;;;;;;11.00;8.73;;;;;;;24.92;100.00;100773.50;5007340;28;20177;-84
2021/07/30 02:08:51;;;;;;;12.90;9.37;;;;;;;24.87;100.00;100778.66;5012653;28;20198;-70
2021/07/30 02:11:16;;;;;;;14.77;9.60;;;;;;;24.84;100.00;100780.88;5002636;28;20695;-71
2021/07/30 02:16:26;;;;;;;15.30;8.47;;;;;;;24.85;100.00;100769.09;5011394;28;20201;-71
2021/07/30 02:18:52;;;;;;;12.17;9.63;;;;;;;24.80;100.00;100766.19;5012352;28;20410;-73
2021/07/30 02:21:18;;;;;;;15.47;11.07;;;;;;;24.82;100.00;100766.81;5011744;28;20171;-72
2021/07/30 02:23:44;;;;;;;15.20;12.30;;;;;;;24.92;100.00;100780.75;5012426;28;20221;-74
2021/07/30 02:26:10;;;;;;;19.83;15.10;;;;;;;24.93;100.00;100774.34;5008979;28;20410;-72
2021/07/30 02:28:35;;;;;;;19.53;14.73;;;;;;;25.01;100.00;100774.19;5010827;28;20462;-72
2021/07/30 02:31:01;;;;;;;24.80;17.00;;;;;;;24.97;100.00;100777.47;5011920;28;20684;-74
2021/07/30 02:33:26;;;;;;;28.03;20.30;;;;;;;24.97;100.00;100764.88;5004648;28;20224;-73
2021/07/30 02:35:52;;;;;;;18.67;11.50;;;;;;;25.01;100.00;100759.91;5012183;28;20654;-86
2021/07/30 02:38:17;;;;;;;13.83;9.80;;;;;;;25.00;100.00;100758.25;5016426;28;20210;-81
2021/07/30 02:40:43;;;;;;;9.30;7.37;;;;;;;25.01;100.00;100760.75;5011883;28;20232;-71
2021/07/30 02:43:08;;;;;;;15.03;7.53;;;;;;;25.04;100.00;100762.25;5008690;28;20206;-72
2021/07/30 02:45:33;;;;;;;11.67;7.27;;;;;;;25.20;100.00;100759.25;5012462;28;20177;-74
2021/07/30 02:47:59;;;;;;;13.70;8.67;;;;;;;25.24;100.00;100754.28;5007317;28;20672;-70
2021/07/30 02:50:25;;;;;;;11.40;8.60;;;;;;;25.21;100.00;100755.53;5012914;28;20536;-71
2021/07/30 02:52:50;;;;;;;15.60;10.57;;;;;;;25.13;100.00;100756.53;5043461;28;20261;-71
2021/07/30 02:55:16;;;;;;;12.70;8.60;;;;;;;25.08;100.00;100763.50;5023615;28;20222;-74
2021/07/30 02:57:44;;;;;;;11.90;8.03;;;;;;;25.09;100.00;100765.16;5014882;28;20621;-87
2021/07/30 03:00:09;;;;;;;15.20;8.00;;;;;;;25.07;100.00;100762.69;5013479;28;20166;-72
2021/07/30 03:02:35;;;;;;;9.90;7.10;;;;;;;25.09;100.00;100768.72;5007784;28;21149;-73
2021/07/30 03:05:00;;;;;;;14.17;8.60;;;;;;;25.16;100.00;100772.28;5009156;28;20170;-73
2021/07/30 03:07:26;;;;;;;12.60;8.73;;;;;;;25.08;100.00;100774.25;5012149;28;20291;-74
2021/07/30 03:09:51;;;;;;;14.60;9.73;;;;;;;24.97;100.00;100786.38;5012699;28;20174;-81
2021/07/30 03:12:17;;;;;;;14.53;9.23;;;;;;;24.89;100.00;100798.09;5007603;28;20175;-73
2021/07/30 03:14:42;;;;;;;14.40;9.13;;;;;;;24.79;100.00;100799.47;5014824;28;20278;-81
2021/07/30 03:17:08;;;;;;;20.30;9.70;;;;;;;24.59;100.00;100794.75;5006029;28;20182;-81
2021/07/30 03:19:33;;;;;;;16.13;8.93;;;;;;;24.54;100.00;100801.72;5022871;28;20545;-75
2021/07/30 03:21:59;;;;;;;18.33;11.30;;;;;;;24.47;100.00;100807.00;5016487;28;20173;-72
2021/07/30 03:24:25;;;;;;;11.67;9.80;;;;;;;24.49;100.00;100810.38;5012341;28;20197;-70
2021/07/30 03:26:51;;;;;;;14.83;9.70;;;;;;;24.47;100.00;100808.88;5007471;28;20919;-73
2021/07/30 03:29:17;;;;;;;14.70;10.00;;;;;;;24.43;100.00;100821.03;5007643;28;20200;-71
2021/07/30 03:31:47;;;;;;;12.87;9.90;;;;;;;24.39;100.00;100817.88;5000415;28;20170;-74
2021/07/30 03:34:13;;;;;;;16.07;10.20;;;;;;;24.34;100.00;100818.47;5013413;28;20179;-77
2021/07/30 03:36:38;;;;;;;18.50;10.63;;;;;;;24.34;100.00;100814.97;5011376;28;20483;-73
2021/07/30 03:39:04;;;;;;;25.03;10.40;;;;;;;24.41;100.00;100807.81;5011158;28;20990;-73
2021/07/30 03:41:29;;;;;;;16.50;10.23;;;;;;;24.35;100.00;100808.56;5009632;28;20224;-72
2021/07/30 03:43:55;;;;;;;16.20;10.17;;;;;;;24.33;100.00;100806.06;5007719;28;20253;-72
2021/07/30 03:46:20;;;;;;;16.43;10.90;;;;;;;24.38;100.00;100808.16;5011962;28;20580;-74
2021/07/30 03:48:45;;;;;;;21.20;10.40;;;;;;;24.35;100.00;100812.09;5005233;28;20209;-72
2021/07/30 03:51:11;;;;;;;19.87;10.37;;;;;;;24.30;100.00;100811.78;5006320;28;20174;-71
2021/07/30 03:53:36;;;;;;;14.80;10.60;;;;;;;24.35;100.00;100809.41;5003462;28;20175;-72
2021/07/30 03:56:02;;;;;;;17.80;10.60;;;;;;;24.37;100.00;100811.88;5011503;28;20181;-72
2021/07/30 03:58:27;;;;;;;15.70;9.93;;;;;;;24.43;100.00;100811.13;5009490;28;20174;-73
2021/07/30 04:00:53;;;;;;;22.10;11.80;;;;;;;24.51;100.00;100813.69;5011991;28;20181;-72
2021/07/30 04:03:18;;;;;;;13.40;9.73;;;;;;;24.55;100.00;100823.00;5009929;28;20694;-72
2021/07/30 04:05:44;;;;;;;19.70;11.40;;;;;;;24.49;100.00;100818.44;5010818;28;20170;-71
2021/07/30 04:08:09;;;;;;;18.80;10.83;;;;;;;24.55;100.00;100820.31;5019959;28;20189;-73
2021/07/30 04:10:35;;;;;;;18.60;10.53;;;;;;;24.57;100.00;100820.97;4990660;28;20273;-72
2021/07/30 04:13:00;;;;;;;15.23;10.07;;;;;;;24.48;100.00;100818.59;5007863;28;20182;-72
2021/07/30 04:15:26;;;;;;;15.87;10.77;;;;;;;24.46;100.00;100818.78;5005465;28;20166;-72
2021/07/30 04:17:53;;;;;;;17.30;10.30;;;;;;;24.55;100.00;100823.00;5011017;28;20166;-73
2021/07/30 04:20:18;;;;;;;22.83;11.47;;;;;;;24.45;100.00;100827.88;5010903;28;20205;-73
2021/07/30 04:22:43;;;;;;;18.83;11.60;;;;;;;24.47;100.00;100823.13;5007022;28;20881;-71
2021/07/30 04:25:09;;;;;;;14.90;10.30;;;;;;;24.37;100.00;100822.63;5010659;28;20167;-85
2021/07/30 04:27:35;;;;;;;21.97;9.90;;;;;;;24.31;100.00;100823.34;5009117;28;20220;-77
2021/07/30 04:30:00;;;;;;;14.00;9.97;;;;;;;24.33;100.00;100824.88;4999589;28;20596;-72
2021/07/30 04:32:26;;;;;;;17.00;9.63;;;;;;;24.39;100.00;100817.88;5013790;28;20166;-72
2021/07/30 04:34:51;;;;;;;16.33;9.40;;;;;;;24.49;100.00;100817.59;5023333;28;20174;-75
2021/07/30 04:37:17;;;;;;;15.53;9.23;;;;;;;24.55;100.00;100819.50;5010537;28;20710;-72
2021/07/30 04:39:42;;;;;;;21.40;10.03;;;;;;;24.63;100.00;100819.38;5009411;28;20197;-73
2021/07/30 04:42:08;;;;;;;16.53;10.20;;;;;;;24.74;100.00;100815.34;5010693;28;20171;-74
2021/07/30 04:44:34;;;;;;;17.70;10.80;;;;;;;24.87;100.00;100820.84;5009605;28;20163;-73
2021/07/30 04:47:00;;;;;;;16.20;11.23;;;;;;;24.95;100.00;100820.69;5009561;28;20656;-72
2021/07/30 04:49:26;;;;;;;17.63;10.80;;;;;;;25.08;100.00;100812.75;5010074;28;20413;-71
2021/07/30 04:51:51;;;;;;;17.53;10.10;;;;;;;25.25;100.00;100820.53;5014630;28;20249;-73
2021/07/30 04:54:17;;;;;;;21.83;10.00;;;;;;;25.42;100.00;100813.81;5008992;28;20163;-74
2021/07/30 04:56:42;;;;;;;20.60;10.90;;;;;;;25.55;100.00;100813.06;5012384;28;20194;-73
2021/07/30 04:59:08;;;;;;;23.73;10.70;;;;;;;25.70;100.00;100811.09;5014013;28;20186;-71
2021/07/30 05:01:40;;;;;;;13.80;10.07;;;;;;;25.93;100.00;100806.25;5013925;28;20613;-76
2021/07/30 05:04:06;;;;;;;20.70;9.80;;;;;;;26.03;100.00;100813.09;5006190;28;20189;-71
2021/07/30 05:06:32;;;;;;;21.63;9.53;;;;;;;26.09;100.00;100815.81;5009518;28;20975;-76
2021/07/30 05:08:57;;;;;;;22.73;11.03;;;;;;;26.14;100.00;100818.72;5019726;28;20451;-73
2021/07/30 05:11:23;;;;;;;20.23;9.97;;;;;;;26.17;100.00;100815.63;5011725;28;20621;-72
2021/07/30 05:13:48;;;;;;;23.83;10.43;;;;;;;26.17;100.00;100821.03;5013933;28;20510;-74
2021/07/30 05:16:14;;;;;;;19.50;12.50;;;;;;;26.33;100.00;100825.22;5026330;28;20177;-74
2021/07/30 05:18:39;;;;;;;18.60;11.13;;;;;;;26.49;100.00;100832.13;5013554;28;20668;-82
2021/07/30 05:21:07;;;;;;;14.50;9.80;;;;;;;26.50;100.00;100823.00;5001814;28;20182;-74
2021/07/30 05:23:32;;;;;;;17.33;8.27;;;;;;;26.61;100.00;100819.69;5013302;28;20162;-72
2021/07/30 05:25:58;;;;;;;18.47;9.43;;;;;;;26.83;100.00;100826.56;5011942;28;20436;-70
2021/07/30 05:28:24;;;;;;;16.00;9.03;;;;;;;26.87;100.00;100835.06;5015109;28;20197;-70
2021/07/30 05:30:50;;;;;;;15.90;9.27;;;;;;;26.90;100.00;100833.81;5013457;28;20414;-72
2021/07/30 05:33:15;;;;;;;17.57;9.60;;;;;;;27.05;100.00;100829.06;5008227;28;20418;-71
2021/07/30 05:35:41;;;;;;;25.17;12.50;;;;;;;27.09;100.00;100838.41;5016578;28;20166;-70
2021/07/30 05:38:07;;;;;;;20.87;11.00;;;;;;;27.13;100.00;100853.16;5001335;28;20218;-74
2021/07/30 05:40:32;;;;;;;15.90;11.53;;;;;;;27.13;100.00;100849.59;5009784;28;20198;-81
2021/07/30 05:42:58;;;;;;;15.67;10.33;;;;;;;27.15;100.00;100848.38;5010804;28;20162;-71
2021/07/30 05:45:23;;;;;;;18.63;10.00;;;;;;;27.25;100.00;100835.28;5010442;28;20177;-73
2021/07/30 05:47:49;;;;;;;20.10;10.67;;;;;;;27.29;100.00;100833.00;5011063;28;20194;-71
2021/07/30 05:50:16;;;;;;;18.90;10.23;;;;;;;27.31;100.00;100837.16;5032636;28;20441;-71
2021/07/30 05:52:42;;;;;;;15.87;11.03;;;;;;;27.32;100.00;100829.88;5010258;28;20797;-71
2021/07/30 05:55:07;;;;;;;22.37;10.97;;;;;;;27.20;100.00;100828.84;5009127;28;20425;-74
2021/07/30 05:57:36;;;;;;;23.03;11.83;;;;;;;27.32;100.00;100829.88;5007338;28;20182;-71
2021/07/30 06:00:04;;;;;;;25.43;10.63;;;;;;;27.46;100.00;100826.13;5009407;28;20162;-77
2021/07/30 06:02:29;;;;;;;21.63;13.77;;;;;;;27.64;100.00;100820.84;5008701;28;20430;-73
2021/07/30 06:04:55;;;;;;;26.70;11.70;;;;;;;27.83;100.00;100821.88;5007162;28;20440;-72
2021/07/30 06:07:21;;;;;;;22.57;11.87;;;;;;;28.01;100.00;100812.22;5009652;28;20189;-73
2021/07/30 06:09:46;;;;;;;20.77;9.43;;;;;;;28.23;100.00;100810.88;5013419;28;20166;-71
2021/07/30 06:12:11;;;;;;;16.97;10.03;;;;;;;28.28;100.00;100811.06;5006824;28;20192;-70
2021/07/30 06:14:37;;;;;;;22.00;9.83;;;;;;;28.46;100.00;100815.75;5007436;28;20169;-75
2021/07/30 06:17:03;;;;;;;16.50;10.13;;;;;;;28.54;100.00;100818.19;5012164;28;20177;-75
2021/07/30 06:19:28;;;;;;;17.27;10.53;;;;;;;28.80;100.00;100816.34;5011795;28;20194;-71
2021/07/30 06:21:54;;;;;;;22.57;10.00;;;;;;;28.88;100.00;100816.91;5012434;28;20633;-80
2021/07/30 06:24:19;;;;;;;15.43;11.00;;;;;;;28.93;100.00;100811.66;5010341;28;20166;-71
2021/07/30 06:26:45;;;;;;;16.50;10.40;;;;;;;29.02;100.00;100812.25;5009827;28;20159;-73
2021/07/30 06:29:10;;;;;;;24.10;10.93;;;;;;;28.93;100.00;100817.06;5011078;28;20190;-72
2021/07/30 06:31:36;;;;;;;28.27;13.13;;;;;;;28.89;100.00;100805.03;5018379;28;20265;-73
2021/07/30 06:34:01;;;;;;;20.93;10.10;;;;;;;29.09;100.00;100810.25;5009622;28;20173;-80
2021/07/30 06:36:27;;;;;;;17.73;9.50;;;;;;;29.25;100.00;100814.31;5008542;28;20197;-72
2021/07/30 06:38:52;;;;;;;15.57;9.73;;;;;;;29.37;100.00;100811.66;5003596;28;20198;-73
2021/07/30 06:41:18;;;;;;;19.80;10.83;;;;;;;29.38;100.00;100808.72;5011934;28;20601;-74
2021/07/30 06:43:43;;;;;;;15.33;9.63;;;;;;;29.43;100.00;100814.31;5013702;28;20208;-72
2021/07/30 06:46:09;;;;;;;19.23;10.30;;;;;;;29.68;100.00;100805.31;5011646;28;20261;-75
2021/07/30 06:48:35;;;;;;;22.97;9.97;;;;;;;29.89;100.00;100810.25;5010163;28;20197;-77
2021/07/30 06:51:01;;;;;;;11.90;10.40;;;;;;;30.04;100.00;100807.97;5012028;28;20421;-71
2021/07/30 06:53:27;;;;;;;16.90;8.17;;;;;;;30.27;100.00;100811.88;5010822;28;20170;-73
2021/07/30 06:55:52;;;;;;;12.23;10.00;;;;;;;30.43;100.00;100810.38;5011552;28;20214;-73
2021/07/30 06:58:18;;;;;;;16.40;9.57;;;;;;;30.35;100.00;100815.06;5013344;28;20549;-73
2021/07/30 07:00:43;;;;;;;14.50;9.83;;;;;;;30.49;100.00;100821.13;5001909;28;20169;-72
2021/07/30 07:03:08;;;;;;;15.33;9.30;;;;;;;30.59;100.00;100820.56;5007969;28;20241;-72
2021/07/30 07:05:34;;;;;;;24.50;18.30;;;;;;;30.67;100.00;100825.69;5003485;28;20177;-72
2021/07/30 07:08:00;;;;;;;16.60;9.57;;;;;;;30.80;100.00;100833.63;5008600;28;20208;-78
2021/07/30 07:10:25;;;;;;;22.00;9.93;;;;;;;30.84;100.00;100834.81;5024251;28;20182;-73
2021/07/30 07:12:51;;;;;;;15.97;9.90;;;;;;;30.82;100.00;100834.19;5010550;28;20174;-73
2021/07/30 07:15:16;;;;;;;16.33;9.10;;;;;;;30.85;100.00;100824.78;5010273;28;20228;-73
2021/07/30 07:17:42;;;;;;;14.43;9.20;;;;;;;30.74;100.00;100829.13;5010905;28;20185;-72
2021/07/30 07:20:08;;;;;;;10.10;8.83;;;;;;;30.77;100.00;100839.53;5005624;28;20171;-72
2021/07/30 07:22:33;;;;;;;15.30;9.03;;;;;;;30.61;100.00;100835.56;5017141;28;20253;-73
2021/07/30 07:24:59;;;;;;;10.97;8.50;;;;;;;30.47;100.00;100838.72;5010571;28;20904;-73
2021/07/30 07:27:24;;;;;;;20.60;8.77;;;;;;;30.37;100.00;100840.06;5010952;28;20289;-70
2021/07/30 07:29:50;;;;;;;13.67;9.23;;;;;;;30.34;100.00;100848.69;5011314;28;20513;-83
2021/07/30 07:32:15;;;;;;;10.10;7.60;;;;;;;30.36;100.00;100841.13;5011075;28;20508;-72
2021/07/30 07:34:41;;;;;;;13.83;8.90;;;;;;;30.33;100.00;100840.78;5008867;28;20262;-74
2021/07/30 07:37:06;;;;;;;13.57;8.27;;;;;;;30.46;100.00;100842.47;5004563;28;20224;-75
2021/07/30 07:39:32;;;;;;;10.13;7.63;;;;;;;30.71;100.00;100845.88;5013383;28;20285;-72
2021/07/30 07:41:58;;;;;;;15.07;9.47;;;;;;;31.04;100.00;100849.94;4992454;28;20204;-72
2021/07/30 07:44:25;;;;;;;14.07;8.20;;;;;;;31.33;100.00;100859.06;5007887;28;20176;-73
2021/07/30 07:46:51;;;;;;;10.33;7.67;;;;;;;31.30;100.00;100845.97;5005770;28;20500;-71
2021/07/30 07:49:17;;;;;;;11.10;7.50;;;;;;;31.17;100.00;100847.81;5013704;28;20413;-77
2021/07/30 07:51:43;;;;;;;8.90;7.53;;;;;;;31.01;100.00;100850.41;5008913;28;20428;-78
2021/07/30 07:54:09;;;;;;;12.83;9.40;;;;;;;30.69;100.00;100848.00;5011544;28;20176;-72
2021/07/30 07:56:34;;;;;;;9.43;7.90;;;;;;;30.67;100.00;100847.38;5009533;28;20178;-73
2021/07/30 07:59:01;;;;;;;10.17;8.27;;;;;;;30.44;100.00;100852.72;5011730;28;20178;-72
2021/07/30 08:01:26;;;;;;;10.90;7.13;;;;;;;30.30;100.00;100860.19;5013394;28;20174;-73
2021/07/30 08:03:52;;;;;;;14.97;7.77;;;;;;;30.18;100.00;100848.50;5007966;28;20421;-72
2021/07/30 08:06:19;;;;;;;12.03;7.73;;;;;;;30.22;100.00;100842.38;5011717;28;20649;-73
2021/07/30 08:08:46;;;;;;;9.60;7.03;;;;;;;30.23;100.00;100849.47;5010331;28;20927;-84
2021/07/30 08:11:11;;;;;;;14.43;8.20;;;;;;;30.40;100.00;100849.66;5000989;28;20421;-73
2021/07/30 08:13:38;;;;;;;10.90;8.27;;;;;;;30.50;100.00;100854.50;5006518;28;20788;-76
2021/07/30 08:16:04;;;;;;;11.50;8.47;;;;;;;30.44;100.00;100848.13;5006774;28;20249;-75
2021/07/30 08:18:29;;;;;;;16.50;8.77;;;;;;;30.52;100.00;100845.06;5003027;28;20490;-73
2021/07/30 08:20:55;;;;;;;11.43;8.27;;;;;;;30.52;100.00;100852.38;5010300;28;20491;-78
2021/07/30 08:23:20;;;;;;;13.40;8.00;;;;;;;30.62;100.00;100841.81;5011004;28;20193;-76
2021/07/30 08:25:46;;;;;;;9.77;7.90;;;;;;;30.66;100.00;100835.72;5018754;28;20179;-84
2021/07/30 08:28:13;;;;;;;11.60;7.93;;;;;;;30.70;100.00;100833.38;5012167;28;20277;-76
2021/07/30 08:30:41;;;;;;;12.93;8.30;;;;;;;30.62;100.00;100834.50;5015399;28;20221;-72
2021/07/30 08:33:07;;;;;;;8.93;7.23;;;;;;;30.50;100.00;100830.91;5015872;28;20433;-74
2021/07/30 08:35:34;;;;;;;9.40;7.20;;;;;;;30.51;100.00;100829.84;5013982;28;20497;-75
2021/07/30 08:37:59;;;;;;;16.93;8.43;;;;;;;30.60;100.00;100833.88;5014118;28;20272;-84
2021/07/30 08:40:31;;;;;;;14.47;8.77;;;;;;;30.62;100.00;100829.06;5013822;28;20405;-72
2021/07/30 08:42:57;;;;;;;9.60;8.20;;;;;;;30.75;100.00;100825.34;5006943;28;20498;-74
2021/07/30 08:45:22;;;;;;;10.17;7.20;;;;;;;30.77;100.00;100812.38;5003739;28;20911;-75
2021/07/30 08:47:50;;;;;;;13.17;7.90;;;;;;;30.82;100.00;100817.09;5016198;28;20190;-72
2021/07/30 08:50:16;;;;;;;16.50;8.23;;;;;;;30.80;100.00;100816.50;5013118;28;20159;-72
2021/07/30 08:52:43;;;;;;;10.17;7.30;;;;;;;30.72;100.00;100819.56;5013048;28;20417;-73
2021/07/30 08:55:09;;;;;;;10.50;7.10;;;;;;;30.70;100.00;100817.09;5012236;28;20205;-76
2021/07/30 08:57:35;;;;;;;12.97;8.03;;;;;;;30.81;100.00;100818.97;5006200;28;20425;-74
2021/07/30 09:00:12;;;;;;;10.20;8.13;;;;;;;30.76;100.00;100820.72;4998192;28;20421;-73
2021/07/30 09:02:38;;;;;;;12.03;7.20;;;;;;;30.77;100.00;100814.28;5004807;28;20162;-74
2021/07/30 09:05:27;;;;;;;8.80;7.80;;;;;;;30.93;100.00;100825.25;5011570;28;20404;-76
2021/07/30 09:07:53;;;;;;;10.43;7.33;;;;;;;31.08;100.00;100827.50;5011210;28;20437;-72
2021/07/30 09:10:40;;;;;;;10.07;7.13;;;;;;;31.05;100.00;100824.41;5011684;28;20459;-73
2021/07/30 09:13:28;;;;;;;9.83;7.63;;;;;;;30.90;100.00;100816.75;5009172;28;20957;-78
2021/07/30 09:16:11;;;;;;;9.23;8.00;;;;;;;30.90;100.00;100816.75;5000031;28;20993;-74
2021/07/30 09:18:41;;;;;;;12.93;8.40;;;;;;;30.95;100.00;100808.72;5007710;28;20422;-73
2021/07/30 09:21:18;;;;;;;11.43;7.50;;;;;;;30.99;100.00;100817.25;5017280;28;20465;-73
2021/07/30 09:24:13;;;;;;;8.50;7.37;;;;;;;30.98;100.00;100816.38;5012056;28;20861;-74
2021/07/30 09:26:48;;;;;;;8.60;7.50;;;;;;;31.05;100.00;100810.84;5014667;28;20437;-74
2021/07/30 09:29:18;;;;;;;9.50;7.20;;;;;;;31.05;100.00;100808.97;5008716;28;20492;-73
2021/07/30 09:31:50;;;;;;;12.93;7.93;;;;;;;30.97;100.00;100814.75;5004254;28;20394;-74
2021/07/30 09:34:29;;;;;;;13.80;8.17;;;;;;;31.11;100.00;100804.47;5012284;28;20416;-73
2021/07/30 09:37:05;;;;;;;13.67;8.40;;;;;;;31.23;100.00;100809.94;5012172;28;20480;-77
2021/07/30 09:39:33;;;;;;;11.03;8.43;;;;;;;31.34;100.00;100806.38;5021129;28;20424;-73
2021/07/30 09:42:05;;;;;;;10.57;8.43;;;;;;;31.35;100.00;100805.31;5012432;28;20518;-77
2021/07/30 09:44:33;;;;;;;27.63;21.43;;;;;;;31.41;100.00;100801.66;5016557;28;20785;-75
2021/07/30 09:47:10;;;;;;;10.77;9.47;;;;;;;31.34;100.00;100806.38;5012691;28;20400;-74
2021/07/30 09:49:44;;;;;;;15.70;12.80;;;;;;;31.34;100.00;100799.06;5012450;28;20428;-73
2021/07/30 09:52:27;;;;;;;16.60;8.70;;;;;;;31.14;100.00;100806.75;5010321;28;20433;-74
2021/07/30 09:54:54;;;;;;;15.90;11.63;;;;;;;31.36;100.00;100804.25;5008809;28;20524;-72
2021/07/30 09:57:25;;;;;;;14.30;9.87;;;;;;;31.59;100.00;100793.38;5007825;28;20414;-75
2021/07/30 09:59:54;;;;;;;23.40;18.17;;;;;;;31.68;100.00;100788.38;5008221;28;20799;-78
2021/07/30 10:02:21;;;;;;;45.47;9.97;;;;;;;31.65;100.00;100792.38;5011704;28;20417;-81
2021/07/30 10:04:51;;;;;;;19.63;17.60;;;;;;;31.66;100.00;100783.16;5007444;28;20491;-77
2021/07/30 10:07:19;;;;;;;28.93;21.63;;;;;;;31.46;100.00;100789.00;5008280;28;20484;-83
2021/07/30 10:09:54;;;;;;;12.83;8.30;;;;;;;31.53;100.00;100788.06;5011386;28;20450;-74
2021/07/30 10:12:20;;;;;;;28.33;23.70;;;;;;;31.58;100.00;100788.16;5010898;28;20421;-78
2021/07/30 10:14:47;;;;;;;28.67;24.23;;;;;;;31.71;100.00;100782.44;5007866;28;20936;-75
2021/07/30 10:17:15;;;;;;;15.60;11.37;;;;;;;31.81;100.00;100784.56;5012871;28;20836;-78
2021/07/30 10:19:42;;;;;;;12.57;8.30;;;;;;;32.02;100.00;100784.72;5012908;28;20840;-74
2021/07/30 10:22:09;;;;;;;16.40;11.17;;;;;;;31.98;100.00;100783.56;5023606;28;20417;-75
2021/07/30 10:24:41;;;;;;;13.73;9.60;;;;;;;32.05;100.00;100777.16;5011459;28;20540;-76
2021/07/30 10:27:08;;;;;;;13.73;8.10;;;;;;;32.34;100.00;100773.34;5011631;28;20488;-76
2021/07/30 10:30:06;;;;;;;11.50;8.60;;;;;;;32.78;100.00;100771.63;5011684;28;20409;-74
2021/07/30 10:32:54;;;;;;;9.33;8.23;;;;;;;33.45;100.00;100767.19;5012800;28;20429;-76
2021/07/30 10:35:41;;;;;;;13.10;8.10;;;;;;;33.37;100.00;100771.13;5011173;28;20465;-78
2021/07/30 10:38:20;;;;;;;16.63;9.30;;;;;;;33.36;100.00;100770.31;5011251;28;20503;-77
2021/07/30 10:40:55;;;;;;;14.03;8.20;;;;;;;32.97;100.00;100772.22;5011519;28;20433;-75
2021/07/30 10:43:21;;;;;;;22.77;10.37;;;;;;;32.92;100.00;100768.59;5010960;28;20965;-72
2021/07/30 10:46:13;;;;;;;12.33;9.10;;;;;;;32.84;100.00;100767.09;5011380;28;20914;-72
2021/07/30 10:48:39;;;;;;;13.10;9.20;;;;;;;32.82;100.00;100775.50;5011409;28;20540;-78
2021/07/30 10:51:20;;;;;;;13.30;9.33;;;;;;;32.82;100.00;100770.06;5009778;28;20423;-75
2021/07/30 10:53:59;;;;;;;15.57;10.60;;;;;;;32.86;100.00;100770.41;5011546;28;20443;-73
2021/07/30 10:56:30;;;;;;;13.13;11.50;;;;;;;32.94;100.00;100771.88;5008701;28;20413;-74
2021/07/30 10:58:58;;;;;;;12.07;9.87;;;;;;;32.95;100.00;100770.81;5007860;28;20786;-72
2021/07/30 11:01:44;;;;;;;13.10;9.10;;;;;;;32.79;100.00;100770.53;5011036;28;20559;-73
2021/07/30 11:04:11;;;;;;;14.73;9.23;;;;;;;32.82;100.00;100767.34;5011209;28;20472;-82
2021/07/30 11:06:36;;;;;;;12.97;8.70;;;;;;;32.88;100.00;100762.84;5009973;28;20500;-76
2021/07/30 11:09:03;;;;;;;12.53;10.50;;;;;;;32.85;100.00;100768.75;5010469;28;20449;-73
2021/07/30 11:11:42;;;;;;;11.00;9.90;;;;;;;33.00;100.00;100770.91;5010396;28;20205;-74